createdAt,value
2018-10-07T00:01:18.495Z,98319.22
2018-10-07T00:03:45.778Z,98327.55
2018-10-07T00:06:12.989Z,98322.59
2018-10-07T00:08:41.273Z,98329.33
2018-10-07T00:11:08.525Z,98328.36
2018-10-07T00:13:35.895Z,98331.23
2018-10-07T00:16:03.136Z,98329.21
2018-10-07T00:18:30.290Z,98323.81
2018-10-07T00:20:57.541Z,98326.19
2018-10-07T00:23:25.286Z,98332.57
2018-10-07T00:25:52.491Z,98341.33
2018-10-07T00:28:19.733Z,98344.20
2018-10-07T00:30:47.037Z,98351.41
2018-10-07T00:33:14.257Z,98354.99
2018-10-07T00:35:41.490Z,98351.69
2018-10-07T00:38:08.734Z,98357.59
2018-10-07T00:40:35.869Z,98358.67
2018-10-07T00:43:03.223Z,98361.67
2018-10-07T00:45:30.989Z,98352.38
2018-10-07T00:47:58.242Z,98349.95
2018-10-07T00:50:25.632Z,98352.55
2018-10-07T00:52:53.068Z,98345.82
2018-10-07T00:55:20.645Z,98357.69
2018-10-07T00:57:47.841Z,98352.98
2018-10-07T01:00:14.994Z,98358.34
2018-10-07T01:02:42.191Z,98350.23
2018-10-07T01:05:09.401Z,98358.98
2018-10-07T01:07:36.567Z,98354.59
2018-10-07T01:10:03.974Z,98356.30
2018-10-07T01:12:31.182Z,98351.72
2018-10-07T01:14:58.406Z,98357.25
2018-10-07T01:17:26.295Z,98359.06
2018-10-07T01:19:53.493Z,98356.27
2018-10-07T01:22:20.698Z,98357.67
2018-10-07T01:24:47.898Z,98358.46
2018-10-07T01:27:15.152Z,98358.09
2018-10-07T01:29:42.404Z,98363.91
2018-10-07T01:32:09.601Z,98362.28
2018-10-07T01:34:36.850Z,98365.73
2018-10-07T01:37:04.097Z,98367.52
2018-10-07T01:39:31.359Z,98374.41
2018-10-07T01:41:58.558Z,98370.05
2018-10-07T01:44:25.767Z,98370.27
2018-10-07T01:46:52.928Z,98366.21
2018-10-07T01:49:20.571Z,98368.30
2018-10-07T01:51:47.871Z,98362.84
2018-10-07T01:54:15.040Z,98366.02
2018-10-07T01:56:42.222Z,98361.25
2018-10-07T01:59:09.428Z,98361.98
2018-10-07T02:01:36.628Z,98366.12
2018-10-07T02:04:03.877Z,98371.92
2018-10-07T02:06:31.090Z,98368.44
2018-10-07T02:08:58.234Z,98372.45
2018-10-07T02:11:25.467Z,98369.30
2018-10-07T02:13:52.756Z,98367.15
2018-10-07T02:16:19.983Z,98368.41
2018-10-07T02:18:47.254Z,98371.36
2018-10-07T02:21:14.490Z,98374.56
2018-10-07T02:23:41.694Z,98375.22
2018-10-07T02:26:08.988Z,98369.10
2018-10-07T02:28:36.362Z,98379.27
2018-10-07T02:31:03.783Z,98374.65
2018-10-07T02:33:30.975Z,98378.95
2018-10-07T02:35:58.207Z,98382.83
2018-10-07T02:38:25.410Z,98380.15
2018-10-07T02:40:52.600Z,98380.97
2018-10-07T02:43:19.796Z,98374.12
2018-10-07T02:45:47.076Z,98383.06
2018-10-07T02:48:14.216Z,98376.94
2018-10-07T02:50:41.482Z,98371.97
2018-10-07T02:53:08.870Z,98382.00
2018-10-07T02:55:36.813Z,98382.12
2018-10-07T02:58:04.514Z,98385.61
2018-10-07T03:00:31.719Z,98389.95
2018-10-07T03:02:58.938Z,98389.95
2018-10-07T03:05:26.171Z,98386.12
2018-10-07T03:07:53.384Z,98394.22
2018-10-07T03:10:20.636Z,98392.39
2018-10-07T03:12:47.866Z,98392.63
2018-10-07T03:15:15.118Z,98397.41
2018-10-07T03:17:42.328Z,98399.03
2018-10-07T03:20:09.526Z,98398.85
2018-10-07T03:22:36.828Z,98393.81
2018-10-07T03:25:04.286Z,98397.39
2018-10-07T03:27:31.495Z,98400.36
2018-10-07T03:29:58.632Z,98400.25
2018-10-07T03:32:25.838Z,98399.43
2018-10-07T03:34:53.047Z,98405.66
2018-10-07T03:37:20.246Z,98375.73
2018-10-07T03:39:47.453Z,98419.84
2018-10-07T03:42:15.072Z,98420.05
2018-10-07T03:44:42.202Z,98424.16
2018-10-07T03:47:09.522Z,98431.44
2018-10-07T03:49:37.055Z,98440.75
2018-10-07T03:52:04.321Z,98446.65
2018-10-07T03:54:31.777Z,98443.66
2018-10-07T03:56:58.915Z,98451.38
2018-10-07T03:59:26.145Z,98456.13
2018-10-07T04:01:53.965Z,98457.13
2018-10-07T04:04:21.190Z,98465.61
2018-10-07T04:06:48.542Z,98467.94
2018-10-07T04:09:15.724Z,98463.59
2018-10-07T04:11:43.271Z,98462.78
2018-10-07T04:14:11.577Z,98467.36
2018-10-07T04:16:39.292Z,98472.70
2018-10-07T04:19:06.920Z,98478.31
2018-10-07T04:21:34.246Z,98472.70
2018-10-07T04:24:01.837Z,98465.55
2018-10-07T04:26:29.082Z,98468.00
2018-10-07T04:28:56.290Z,98464.03
2018-10-07T04:31:23.680Z,98466.59
2018-10-07T04:33:50.902Z,98469.48
2018-10-07T04:36:18.041Z,98471.38
2018-10-07T04:38:45.305Z,98469.21
2018-10-07T04:41:12.557Z,98472.96
2018-10-07T04:43:39.698Z,98477.44
2018-10-07T04:46:06.953Z,98480.61
2018-10-07T04:48:34.106Z,98489.15
2018-10-07T04:51:01.300Z,98485.13
2018-10-07T04:53:28.852Z,98490.80
2018-10-07T04:55:56.148Z,98492.69
2018-10-07T04:58:23.469Z,98498.69
2018-10-07T05:00:50.650Z,98500.63
2018-10-07T05:03:17.858Z,98496.67
2018-10-07T05:05:45.049Z,98499.64
2018-10-07T05:08:12.284Z,98497.38
2018-10-07T05:10:45.066Z,98504.34
2018-10-07T05:13:14.829Z,98513.05
2018-10-07T05:15:42.210Z,98522.95
2018-10-07T05:18:09.815Z,98528.11
2018-10-07T05:20:36.961Z,98535.78
2018-10-07T05:23:04.171Z,98541.88
2018-10-07T05:25:31.393Z,98541.62
2018-10-07T05:27:58.724Z,98544.33
2018-10-07T05:30:25.976Z,98549.33
2018-10-07T05:32:53.118Z,98554.68
2018-10-07T05:35:20.497Z,98555.00
2018-10-07T05:37:47.702Z,98562.98
2018-10-07T05:40:14.941Z,98566.89
2018-10-07T05:42:42.412Z,98560.27
2018-10-07T05:45:09.628Z,98570.34
2018-10-07T05:47:36.844Z,98572.23
2018-10-07T05:50:04.034Z,98580.21
2018-10-07T05:52:31.248Z,98580.41
2018-10-07T05:54:58.498Z,98586.22
2018-10-07T05:57:25.744Z,98582.02
2018-10-07T05:59:52.903Z,98584.42
2018-10-07T06:02:20.216Z,98581.45
2018-10-07T06:04:51.025Z,98585.97
2018-10-07T06:07:18.601Z,98592.80
2018-10-07T06:09:45.783Z,98596.23
2018-10-07T06:12:12.966Z,98593.81
2018-10-07T06:14:51.711Z,98602.28
2018-10-07T06:17:18.920Z,98610.20
2018-10-07T06:19:46.066Z,98610.17
2018-10-07T06:22:13.322Z,98614.66
2018-10-07T06:24:40.709Z,98619.13
2018-10-07T06:27:07.931Z,98625.97
2018-10-07T06:29:35.129Z,98625.95
2018-10-07T06:32:02.407Z,98631.23
2018-10-07T06:34:29.619Z,98634.69
2018-10-07T06:36:56.820Z,98638.88
2018-10-07T06:39:24.515Z,98645.84
2018-10-07T06:41:51.856Z,98645.00
2018-10-07T06:44:19.379Z,98653.16
2018-10-07T06:46:46.776Z,98650.77
2018-10-07T06:49:14.097Z,98655.53
2018-10-07T06:51:41.331Z,98658.34
2018-10-07T06:54:08.532Z,98657.78
2018-10-07T06:56:35.746Z,98630.11
2018-10-07T06:59:03.004Z,98660.65
2018-10-07T07:01:30.277Z,98673.63
2018-10-07T07:03:58.547Z,98565.17
2018-10-07T07:06:25.842Z,98693.52
2018-10-07T07:08:52.986Z,98695.56
2018-10-07T07:11:20.184Z,98702.03
2018-10-07T07:13:47.427Z,98704.66
2018-10-07T07:16:14.704Z,98715.10
2018-10-07T07:18:41.881Z,98726.67
2018-10-07T07:21:09.692Z,98737.59
2018-10-07T07:23:36.867Z,98740.97
2018-10-07T07:26:04.201Z,98745.89
2018-10-07T07:28:31.379Z,98754.18
2018-10-07T07:30:58.622Z,98764.74
2018-10-07T07:33:25.806Z,98767.08
2018-10-07T07:35:53.003Z,98770.05
2018-10-07T07:38:20.191Z,98769.38
2018-10-07T07:40:47.414Z,98777.43
2018-10-07T07:43:14.611Z,98784.26
2018-10-07T07:45:41.806Z,98781.77
2018-10-07T07:48:08.982Z,98781.66
2018-10-07T07:50:36.181Z,98789.31
2018-10-07T07:53:03.561Z,98796.02
2018-10-07T07:55:30.761Z,98790.83
2018-10-07T07:57:57.932Z,98785.12
2018-10-07T08:00:25.200Z,98791.70
2018-10-07T08:02:52.423Z,98788.42
2018-10-07T08:05:19.599Z,98793.67
2018-10-07T08:07:46.791Z,98790.81
2018-10-07T08:10:13.961Z,98792.66
2018-10-07T08:12:41.170Z,98794.09
2018-10-07T08:15:08.550Z,98795.48
2018-10-07T08:17:36.010Z,98798.39
2018-10-07T08:20:03.279Z,98801.36
2018-10-07T08:22:30.507Z,98808.89
2018-10-07T08:24:57.722Z,98700.29
2018-10-07T08:27:25.523Z,98821.42
2018-10-07T08:29:52.696Z,98826.69
2018-10-07T08:32:19.847Z,98820.53
2018-10-07T08:34:46.931Z,98810.14
2018-10-07T08:37:14.193Z,98809.26
2018-10-07T08:39:41.618Z,98802.35
2018-10-07T08:42:08.812Z,98813.19
2018-10-07T08:44:36.037Z,98821.47
2018-10-07T08:47:03.259Z,98821.12
2018-10-07T08:49:30.557Z,98818.66
2018-10-07T08:51:57.931Z,98813.92
2018-10-07T08:54:25.163Z,98810.37
2018-10-07T08:56:52.317Z,98804.24
2018-10-07T08:59:19.512Z,98810.63
2018-10-07T09:01:46.765Z,98802.41
2018-10-07T09:04:13.894Z,98809.88
2018-10-07T09:06:41.147Z,98804.20
2018-10-07T09:09:09.518Z,98811.64
2018-10-07T09:11:36.663Z,98814.61
2018-10-07T09:14:03.932Z,98814.14
2018-10-07T09:16:31.096Z,98814.16
2018-10-07T09:18:58.320Z,98812.63
2018-10-07T09:21:25.561Z,98673.03
2018-10-07T09:23:52.710Z,98817.84
2018-10-07T09:26:19.899Z,98820.03
2018-10-07T09:28:47.049Z,98814.70
2018-10-07T09:31:14.237Z,98812.66
2018-10-07T09:33:41.438Z,98814.19
2018-10-07T09:36:08.684Z,98815.05
2018-10-07T09:38:35.829Z,98811.86
2018-10-07T09:41:03.242Z,98822.55
2018-10-07T09:43:30.398Z,98824.26
2018-10-07T09:45:57.565Z,98821.84
2018-10-07T09:48:24.883Z,98821.23
2018-10-07T09:50:52.034Z,98815.33
2018-10-07T09:53:19.246Z,98818.92
2018-10-07T09:55:46.493Z,98818.00
2018-10-07T09:58:13.669Z,98814.11
2018-10-07T10:00:42.445Z,98811.98
2018-10-07T10:03:11.255Z,98810.00
2018-10-07T10:05:38.709Z,98816.38
2018-10-07T10:08:06.257Z,98823.53
2018-10-07T10:10:33.490Z,98828.59
2018-10-07T10:13:00.723Z,98825.27
2018-10-07T10:15:27.881Z,98832.56
2018-10-07T10:17:59.979Z,98838.02
2018-10-07T10:20:34.125Z,98836.73
2018-10-07T10:25:19.186Z,98832.73
2018-10-07T10:27:57.707Z,98842.84
2018-10-07T10:30:34.385Z,98848.02
2018-10-07T10:33:09.817Z,98846.20
2018-10-07T10:35:57.402Z,98847.79
2018-10-07T10:38:35.991Z,98848.19
2018-10-07T10:41:07.965Z,98851.50
2018-10-07T10:44:01.665Z,98860.24
2018-10-07T10:46:40.210Z,98863.53
2018-10-07T10:50:15.302Z,98865.43
2018-10-07T10:53:01.588Z,98871.95
2018-10-07T10:55:35.773Z,98870.69
2018-10-07T10:58:13.771Z,98866.98
2018-10-07T11:00:48.900Z,98871.53
2018-10-07T11:03:21.772Z,98875.14
2018-10-07T11:05:53.710Z,98878.13
2018-10-07T11:08:32.123Z,98874.67
2018-10-07T11:11:39.012Z,98870.56
2018-10-07T11:14:25.326Z,98866.55
2018-10-07T11:19:22.867Z,98862.66
2018-10-07T11:23:59.874Z,98870.27
2018-10-07T11:26:34.351Z,98876.95
2018-10-07T11:29:10.996Z,98874.31
2018-10-07T11:31:45.871Z,98875.89
2018-10-07T11:36:26.436Z,98871.36
2018-10-07T11:39:09.453Z,98881.34
2018-10-07T11:41:44.903Z,98877.43
2018-10-07T11:44:20.633Z,98876.20
2018-10-07T11:46:57.378Z,98874.48
2018-10-07T11:49:44.234Z,98878.52
2018-10-07T11:52:22.922Z,98871.30
2018-10-07T11:54:58.602Z,98877.11
2018-10-07T11:57:26.442Z,98872.30
2018-10-07T11:59:53.642Z,98872.47
2018-10-07T12:02:20.990Z,98874.19
2018-10-07T12:04:48.187Z,98878.03
2018-10-07T12:07:15.756Z,98865.13
2018-10-07T12:09:42.946Z,98864.09
2018-10-07T12:12:10.328Z,98862.28
2018-10-07T12:14:37.651Z,98873.28
2018-10-07T12:17:04.988Z,98883.29
2018-10-07T12:19:32.158Z,98887.22
2018-10-07T12:21:59.339Z,98759.22
2018-10-07T12:24:26.598Z,98890.29
2018-10-07T12:26:53.913Z,98876.94
2018-10-07T12:29:21.142Z,98881.53
2018-10-07T12:31:48.441Z,98886.17
2018-10-07T12:34:15.938Z,98891.95
2018-10-07T12:36:43.199Z,98887.03
2018-10-07T12:39:10.426Z,98891.01
2018-10-07T12:41:37.707Z,98891.71
2018-10-07T12:44:05.009Z,98889.19
2018-10-07T12:46:32.778Z,98882.81
2018-10-07T12:49:00.051Z,98883.05
2018-10-07T12:51:27.255Z,98884.98
2018-10-07T12:53:54.579Z,98889.73
2018-10-07T12:56:21.720Z,98891.95
2018-10-07T12:58:49.138Z,98525.41
2018-10-07T13:01:16.490Z,98892.22
2018-10-07T13:03:43.811Z,98897.38
2018-10-07T13:06:11.510Z,98897.67
2018-10-07T13:08:38.766Z,98902.27
2018-10-07T13:11:05.942Z,98907.54
2018-10-07T13:13:33.928Z,98906.97
2018-10-07T13:16:01.245Z,98904.15
2018-10-07T13:18:28.517Z,98912.67
2018-10-07T13:20:55.782Z,98910.37
2018-10-07T13:23:23.607Z,98915.50
2018-10-07T13:25:50.886Z,98919.43
2018-10-07T13:28:18.553Z,98921.42
2018-10-07T13:30:45.783Z,98925.99
2018-10-07T13:33:14.036Z,98924.77
2018-10-07T13:35:41.269Z,98930.22
2018-10-07T13:38:08.574Z,98934.25
2018-10-07T13:40:35.843Z,98934.55
2018-10-07T13:43:03.134Z,98929.91
2018-10-07T13:45:30.358Z,98935.87
2018-10-07T13:47:57.690Z,98936.98
2018-10-07T13:50:25.005Z,98938.02
2018-10-07T13:52:52.204Z,98939.72
2018-10-07T13:55:19.399Z,98946.39
2018-10-07T13:57:46.614Z,98939.39
2018-10-07T14:00:14.109Z,98945.22
2018-10-07T14:02:42.004Z,98945.34
2018-10-07T14:05:09.431Z,98947.50
2018-10-07T14:07:36.699Z,98948.00
2018-10-07T14:10:04.066Z,98951.31
2018-10-07T14:12:31.314Z,98948.05
2018-10-07T14:14:58.631Z,98954.88
2018-10-07T14:17:25.889Z,98952.06
2018-10-07T14:19:53.139Z,98951.56
2018-10-07T14:22:20.425Z,98957.34
2018-10-07T14:24:47.654Z,98965.95
2018-10-07T14:27:15.282Z,98436.15
2018-10-07T14:29:42.943Z,98969.31
2018-10-07T14:32:10.370Z,98970.98
2018-10-07T14:34:37.685Z,98972.53
2018-10-07T14:37:05.054Z,98976.18
2018-10-07T14:39:32.326Z,98978.53
2018-10-07T14:41:59.600Z,98984.69
2018-10-07T14:44:26.790Z,98987.77
2018-10-07T14:46:54.125Z,98996.05
2018-10-07T14:49:21.929Z,99001.87
2018-10-07T14:51:49.861Z,98996.91
2018-10-07T14:54:17.158Z,98999.33
2018-10-07T14:56:44.355Z,99007.63
2018-10-07T14:59:11.605Z,99011.64
2018-10-07T15:01:39.115Z,99012.91
2018-10-07T15:04:06.558Z,99019.67
2018-10-07T15:06:33.818Z,99021.48
2018-10-07T15:09:01.150Z,99022.74
2018-10-07T15:11:28.435Z,99023.73
2018-10-07T15:13:56.525Z,99023.54
2018-10-07T15:16:26.348Z,99026.91
2018-10-07T15:18:53.810Z,99026.27
2018-10-07T15:21:23.359Z,99025.08
2018-10-07T15:23:50.560Z,99008.53
2018-10-07T15:26:17.876Z,99025.02
2018-10-07T15:28:45.084Z,99022.02
2018-10-07T15:31:12.291Z,99015.11
2018-10-07T15:33:39.450Z,99015.56
2018-10-07T15:36:06.657Z,99014.64
2018-10-07T15:38:37.144Z,99018.11
2018-10-07T15:41:04.830Z,99014.03
2018-10-07T15:43:31.978Z,99012.57
2018-10-07T15:45:59.203Z,99011.63
2018-10-07T15:48:26.422Z,99009.36
2018-10-07T15:50:53.806Z,99015.73
2018-10-07T15:53:20.994Z,99015.27
2018-10-07T15:55:48.228Z,99009.28
2018-10-07T15:58:15.649Z,99013.38
2018-10-07T16:00:43.210Z,99013.22
2018-10-07T16:03:10.446Z,99011.88
2018-10-07T16:05:37.634Z,99019.42
2018-10-07T16:08:05.736Z,99024.12
2018-10-07T16:10:33.030Z,99025.02
2018-10-07T16:13:00.245Z,99027.95
2018-10-07T16:15:27.518Z,99028.02
2018-10-07T16:17:54.926Z,99023.66
2018-10-07T16:20:22.227Z,99023.55
2018-10-07T16:22:49.406Z,99026.41
2018-10-07T16:25:16.637Z,99029.54
2018-10-07T16:27:43.858Z,99042.17
2018-10-07T16:30:11.120Z,99035.48
2018-10-07T16:32:38.446Z,99045.68
2018-10-07T16:35:05.644Z,99047.60
2018-10-07T16:37:32.890Z,99055.36
2018-10-07T16:40:00.021Z,99057.95
2018-10-07T16:42:27.253Z,99060.11
2018-10-07T16:44:54.502Z,99073.01
2018-10-07T16:47:21.762Z,99076.39
2018-10-07T16:49:49.016Z,99083.01
2018-10-07T16:52:16.221Z,99079.10
2018-10-07T16:54:43.575Z,99084.20
2018-10-07T16:57:11.024Z,99091.30
2018-10-07T16:59:38.271Z,99098.28
2018-10-07T17:02:05.498Z,99092.50
2018-10-07T17:04:33.740Z,99097.96
2018-10-07T17:07:01.008Z,99102.54
2018-10-07T17:09:28.233Z,99109.22
2018-10-07T17:11:56.223Z,99110.05
2018-10-07T17:14:23.626Z,99117.94
2018-10-07T17:16:50.872Z,99124.73
2018-10-07T17:19:19.155Z,99124.16
2018-10-07T17:21:46.322Z,99137.52
2018-10-07T17:24:13.558Z,99134.77
2018-10-07T17:26:40.795Z,99143.16
2018-10-07T17:29:08.010Z,99145.64
2018-10-07T17:31:35.211Z,99147.91
2018-10-07T17:34:02.433Z,99151.81
2018-10-07T17:36:29.666Z,99152.02
2018-10-07T17:38:56.885Z,99158.44
2018-10-07T17:41:24.241Z,99162.56
2018-10-07T17:43:51.453Z,99162.44
2018-10-07T17:46:18.674Z,99179.73
2018-10-07T17:48:45.936Z,99181.19
2018-10-07T17:51:13.141Z,99185.19
2018-10-07T17:53:40.319Z,99195.48
2018-10-07T17:56:07.532Z,99200.95
2018-10-07T17:58:34.723Z,99200.95
2018-10-07T18:01:01.933Z,99203.22
2018-10-07T18:03:29.694Z,99208.02
2018-10-07T18:05:56.908Z,99208.39
2018-10-07T18:08:24.113Z,99212.35
2018-10-07T18:10:51.354Z,99210.38
2018-10-07T18:13:18.599Z,99209.09
2018-10-07T18:15:45.979Z,99210.39
2018-10-07T18:18:13.235Z,99218.25
2018-10-07T18:20:40.510Z,99220.58
2018-10-07T18:23:07.665Z,99225.84
2018-10-07T18:25:34.867Z,99230.80
2018-10-07T18:28:02.224Z,99224.64
2018-10-07T18:30:29.684Z,99225.34
2018-10-07T18:32:57.003Z,99233.84
2018-10-07T18:35:24.342Z,99232.73
2018-10-07T18:37:51.820Z,99234.48
2018-10-07T18:40:19.204Z,99240.41
2018-10-07T18:42:46.405Z,99246.64
2018-10-07T18:45:13.637Z,99252.03
2018-10-07T18:47:40.911Z,99258.31
2018-10-07T18:50:08.164Z,99263.95
2018-10-07T18:52:35.467Z,99262.68
2018-10-07T18:55:02.757Z,99265.42
2018-10-07T18:57:29.999Z,99269.66
2018-10-07T18:59:57.292Z,99274.91
2018-10-07T19:02:24.631Z,99279.85
2018-10-07T19:04:51.952Z,99280.44
2018-10-07T19:07:19.198Z,99282.25
2018-10-07T19:09:46.614Z,99289.33
2018-10-07T19:12:20.672Z,99289.88
2018-10-07T19:14:48.095Z,99286.25
2018-10-07T19:17:15.490Z,99286.69
2018-10-07T19:19:42.792Z,99289.56
2018-10-07T19:22:09.988Z,99285.19
2018-10-07T19:24:37.231Z,99291.23
2018-10-07T19:27:04.493Z,99295.18
2018-10-07T19:29:31.784Z,99296.80
2018-10-07T19:31:58.974Z,99303.14
2018-10-07T19:34:26.370Z,99303.67
2018-10-07T19:36:53.680Z,99305.61
2018-10-07T19:39:21.695Z,99313.84
2018-10-07T19:41:49.471Z,99313.35
2018-10-07T19:44:17.004Z,99320.03
2018-10-07T19:46:44.377Z,99320.72
2018-10-07T19:49:11.691Z,99321.84
2018-10-07T19:51:38.998Z,99325.97
2018-10-07T19:54:06.279Z,99324.40
2018-10-07T19:56:33.586Z,99323.58
2018-10-07T19:59:01.072Z,99324.64
2018-10-07T20:01:28.498Z,99323.59
2018-10-07T20:03:55.687Z,99323.84
2018-10-07T20:06:22.890Z,99324.63
2018-10-07T20:08:50.137Z,99326.29
2018-10-07T20:11:17.711Z,99332.16
2018-10-07T20:13:45.008Z,99330.28
2018-10-07T20:16:12.399Z,99330.34
2018-10-07T20:18:39.671Z,99334.62
2018-10-07T20:21:06.994Z,99335.95
2018-10-07T20:23:34.273Z,99334.84
2018-10-07T20:26:01.545Z,99333.53
2018-10-07T20:28:28.773Z,99341.80
2018-10-07T20:30:56.017Z,99345.00
2018-10-07T20:33:23.227Z,99349.06
2018-10-07T20:35:50.548Z,99358.66
2018-10-07T20:38:17.730Z,99358.45
2018-10-07T20:40:45.206Z,99365.36
2018-10-07T20:43:12.383Z,99359.50
2018-10-07T20:45:39.628Z,99357.64
2018-10-07T20:48:06.891Z,99354.45
2018-10-07T20:50:34.055Z,99359.48
2018-10-07T20:53:01.357Z,99348.64
2018-10-07T20:55:28.530Z,99348.98
2018-10-07T20:57:55.703Z,99348.98
2018-10-07T21:00:23.939Z,99349.53
2018-10-07T21:02:51.147Z,99349.86
2018-10-07T21:05:18.376Z,99358.37
2018-10-07T21:07:45.807Z,99353.86
2018-10-07T21:10:13.091Z,99354.36
2018-10-07T21:12:40.338Z,99350.52
2018-10-07T21:15:07.566Z,99343.45
2018-10-07T21:17:34.955Z,99341.59
2018-10-07T21:20:02.192Z,99344.86
2018-10-07T21:22:29.467Z,99348.65
2018-10-07T21:24:56.634Z,99345.83
2018-10-07T21:27:23.850Z,99351.23
2018-10-07T21:29:51.066Z,99356.78
2018-10-07T21:32:18.274Z,99360.22
2018-10-07T21:34:45.546Z,99365.30
2018-10-07T21:37:12.773Z,99358.19
2018-10-07T21:39:40.055Z,99356.09
2018-10-07T21:42:07.289Z,99352.97
2018-10-07T21:44:34.505Z,99352.09
2018-10-07T21:47:01.809Z,99355.54
2018-10-07T21:49:29.094Z,99359.17
2018-10-07T21:51:56.294Z,99354.73
2018-10-07T21:54:23.456Z,99355.56
2018-10-07T21:56:50.657Z,99358.37
2018-10-07T21:59:17.953Z,99357.17
2018-10-07T22:01:45.110Z,99358.34
2018-10-07T22:04:12.353Z,99356.42
2018-10-07T22:06:39.626Z,99351.52
2018-10-07T22:09:07.686Z,99340.34
2018-10-07T22:11:34.840Z,99333.52
2018-10-07T22:14:02.384Z,99337.56
2018-10-07T22:16:29.613Z,99345.27
2018-10-07T22:18:56.826Z,99348.00
2018-10-07T22:21:24.880Z,99352.38
2018-10-07T22:23:52.092Z,99358.19
2018-10-07T22:26:19.307Z,99359.91
2018-10-07T22:28:46.524Z,99356.85
2018-10-07T22:31:13.737Z,99349.09
2018-10-07T22:33:40.877Z,99350.77
2018-10-07T22:36:08.088Z,99353.66
2018-10-07T22:38:35.340Z,99349.17
2018-10-07T22:41:03.203Z,99358.71
2018-10-07T22:43:30.783Z,99363.07
2018-10-07T22:45:58.210Z,99364.61
2018-10-07T22:48:25.894Z,99361.75
2018-10-07T22:50:53.308Z,99364.19
2018-10-07T22:53:20.546Z,99359.45
2018-10-07T22:55:47.755Z,99357.34
2018-10-07T22:58:14.932Z,99356.31
2018-10-07T23:00:42.307Z,99356.59
2018-10-07T23:03:09.491Z,99354.00
2018-10-07T23:05:36.682Z,99351.40
2018-10-07T23:08:03.939Z,99349.32
2018-10-07T23:10:31.298Z,99338.95
2018-10-07T23:12:58.845Z,99346.12
2018-10-07T23:15:26.046Z,99346.12
2018-10-07T23:17:53.367Z,99339.47
2018-10-07T23:20:20.774Z,99338.42
2018-10-07T23:22:47.998Z,99336.85
2018-10-07T23:25:15.194Z,99335.78
2018-10-07T23:27:42.458Z,99338.67
2018-10-07T23:30:09.813Z,99335.50
2018-10-07T23:35:13.521Z,99330.23
2018-10-07T23:37:41.132Z,99335.58
2018-10-07T23:40:09.108Z,99335.83
2018-10-07T23:42:36.386Z,99268.00
2018-10-07T23:45:03.849Z,99336.63
2018-10-07T23:47:31.057Z,99337.18
2018-10-07T23:49:58.246Z,99344.10
2018-10-07T23:52:25.583Z,99342.77
2018-10-07T23:54:52.834Z,99342.77
2018-10-07T23:57:20.110Z,99336.68
2018-10-07T23:59:47.801Z,99337.73
